Time;durP1;ratioP1;P1;durP2;ratioP2;P2;SDS_P1;SDS_P2;PMS_P1;PMS_P2;Temp;Humidity;BMP_temperature;BMP_pressure;BME280_temperature;BME280_humidity;BME280_pressure;Samples;Min_cycle;Max_cycle;Signal;HPM_P1;HPM_P2
2021/12/01 00:01:42;;;;;;;3.20;1.50;;;0.60;99.90;;;-1.35;100.00;100080.59;4901723;28;20037;-86
2021/12/01 00:04:09;;;;;;;2.55;1.35;;;;;;;-1.46;100.00;100073.78;4915481;28;20046;-83
2021/12/01 00:06:36;;;;;;;3.17;1.65;;;0.40;99.90;;;-1.58;100.00;100063.53;4962437;28;20038;-82
2021/12/01 00:09:11;;;;;;;6.63;2.10;;;;;;;-1.71;100.00;100072.22;4923947;28;20045;-82
2021/12/01 00:11:39;;;;;;;3.72;1.30;;;0.10;99.90;;;-1.75;100.00;100057.63;4885300;28;20026;-83
2021/12/01 00:14:05;;;;;;;4.68;1.40;;;0.10;99.90;;;-1.84;100.00;100058.56;4905492;28;20045;-84
2021/12/01 00:16:40;;;;;;;5.93;1.50;;;;;;;-1.89;100.00;100071.50;4915041;28;20034;-84
2021/12/01 00:19:06;;;;;;;2.15;1.30;;;0.00;99.90;;;-1.93;100.00;100056.03;4910907;28;20043;-81
2021/12/01 00:21:43;;;;;;;;;;;;;;;;;;;;;
2021/12/01 00:24:10;;;;;;;3.42;1.33;;;-0.10;99.90;;;-2.07;100.00;100072.47;4958203;28;20413;-82
2021/12/01 00:26:36;;;;;;;2.30;1.55;;;;;;;-2.03;100.00;100081.06;4888647;28;20569;-83
2021/12/01 00:29:15;;;;;;;4.45;1.85;;;;;;;-2.04;100.00;100078.47;4895383;28;20054;-81
2021/12/01 00:31:50;;;;;;;2.92;1.67;;;-0.10;99.90;;;-2.11;100.00;100072.50;4904761;28;20053;-82
2021/12/01 00:34:29;;;;;;;3.63;1.58;;;-0.10;99.90;;;-2.13;100.00;100077.66;4856493;28;20032;-83
2021/12/01 00:36:55;;;;;;;3.45;1.60;;;;;;;-2.19;100.00;100064.78;4855423;28;20118;-81
2021/12/01 00:39:22;;;;;;;2.05;1.40;;;-0.20;99.90;;;-2.24;100.00;100066.53;4822994;28;20052;-82
2021/12/01 00:41:50;;;;;;;1.90;1.10;;;-0.30;99.90;;;-2.28;100.00;100076.00;4841715;28;20067;-83
2021/12/01 00:44:28;;;;;;;8.43;1.80;;;;;;;-2.35;100.00;100045.97;4895392;28;20136;-83
2021/12/01 00:47:18;;;;;;;3.22;1.40;;;-0.40;99.90;;;-2.41;100.00;100035.66;4926687;28;20398;-84
2021/12/01 00:49:44;;;;;;;2.60;1.17;;;-0.20;99.90;;;-2.45;100.00;100039.13;4899450;28;20478;-85
2021/12/01 00:52:24;;;;;;;5.28;1.52;;;-0.50;99.90;;;-2.48;100.00;100044.31;4888530;28;20026;-84
2021/12/01 00:54:50;;;;;;;2.80;1.50;;;-0.60;99.90;;;-2.53;100.00;100041.75;4901224;28;20585;-82
2021/12/01 00:57:16;;;;;;;7.30;1.60;;;-0.60;99.90;;;-2.58;100.00;100035.75;4909584;28;20038;-80
2021/12/01 00:59:52;;;;;;;2.95;1.63;;;;;;;-2.51;100.00;100039.16;4911175;28;20041;-82
2021/12/01 01:02:38;;;;;;;4.22;1.70;;;-0.50;99.90;;;-2.45;100.00;100044.28;4931079;28;20038;-82
2021/12/01 01:05:13;;;;;;;7.35;1.63;;;;;;;-2.46;100.00;100040.00;4869373;28;20041;-83
2021/12/01 01:07:40;;;;;;;4.30;1.50;;;-0.50;99.90;;;-2.50;100.00;100026.25;4908817;28;20029;-81
2021/12/01 01:18:40;;;;;;;2.15;1.30;;;-0.70;99.90;;;-2.69;100.00;100028.06;4912035;28;20121;-79
2021/12/01 01:21:10;;;;;;;12.48;3.67;;;-0.70;99.90;;;-2.71;100.00;100034.06;4896898;28;20026;-80
2021/12/01 01:23:38;;;;;;;6.03;1.70;;;-0.70;99.90;;;-2.71;100.00;100039.22;4936756;28;20102;-80
2021/12/01 01:26:12;;;;;;;4.55;1.23;;;-0.70;99.90;;;-2.69;100.00;100037.50;4902572;28;20062;-81
2021/12/01 01:28:39;;;;;;;8.10;1.50;;;;;;;-2.57;100.00;100016.84;4857843;28;20109;-81
2021/12/01 01:31:14;;;;;;;2.35;1.40;;;-0.60;99.90;;;-2.46;100.00;100016.81;4908912;28;20119;-79
2021/12/01 01:33:41;;;;;;;2.10;1.30;;;;;;;-2.39;100.00;100023.63;4875072;28;20491;-81
2021/12/01 01:36:08;;;;;;;2.28;1.00;;;-0.50;99.90;;;-2.40;100.00;99997.84;4897376;28;20050;-78
2021/12/01 01:38:34;;;;;;;2.28;1.40;;;-0.50;99.90;;;-2.43;100.00;99993.56;4956887;28;20069;-78
2021/12/01 01:41:04;;;;;;;2.72;1.48;;;-0.50;99.90;;;-2.48;100.00;99992.75;4895569;28;20027;-79
2021/12/01 01:43:31;;;;;;;4.70;1.55;;;-0.60;99.90;;;-2.55;100.00;99989.34;4886321;28;20030;-78
2021/12/01 01:45:59;;;;;;;4.50;1.33;;;-0.60;99.90;;;-2.58;100.00;99986.78;4919073;28;20102;-79
2021/12/01 01:48:31;;;;;;;2.67;1.27;;;-0.60;99.90;;;-2.64;100.00;99975.63;4936945;28;20066;-78
2021/12/01 01:51:02;;;;;;;2.28;1.27;;;-0.60;99.90;;;-2.68;100.00;99961.91;4955456;28;20026;-79
2021/12/01 01:53:30;;;;;;;2.33;1.10;;;-0.70;99.90;;;-2.71;100.00;99962.78;4961080;28;20511;-81
2021/12/01 01:56:00;;;;;;;1.58;0.63;;;-0.70;99.90;;;-2.71;100.00;99956.78;4914883;28;20046;-78
2021/12/01 01:58:28;;;;;;;1.90;1.25;;;-0.70;99.90;;;-2.75;100.00;99950.75;4907151;28;20042;-79
2021/12/01 02:01:10;;;;;;;1.63;1.08;;;-0.80;99.90;;;-2.77;100.00;99962.78;4941207;28;20031;-78
2021/12/01 02:03:41;;;;;;;1.45;0.90;;;-0.80;99.90;;;-2.78;100.00;99947.38;4947508;28;22273;-78
2021/12/01 02:06:12;;;;;;;9.23;3.03;;;-0.80;99.90;;;-2.80;100.00;99960.25;4931795;28;20037;-78
2021/12/01 02:08:42;;;;;;;5.68;2.40;;;-0.80;99.90;;;-2.79;100.00;99958.53;4922539;28;20511;-78
2021/12/01 02:11:13;;;;;;;4.00;1.35;;;-0.80;99.90;;;-2.80;100.00;99967.97;4940902;28;22238;-79
2021/12/01 02:13:41;;;;;;;2.67;1.15;;;-0.80;99.90;;;-2.80;100.00;99946.50;4918240;28;20040;-79
2021/12/01 02:16:09;;;;;;;7.00;1.40;;;-0.80;99.90;;;-2.76;100.00;99937.91;4939211;28;20042;-79
2021/12/01 02:18:35;;;;;;;1.40;0.85;;;-0.70;99.90;;;-2.72;100.00;99949.88;4923646;28;20396;-78
2021/12/01 02:21:29;;;;;;;3.80;1.10;;;-0.70;99.90;;;-2.67;100.00;99950.75;4942193;28;20513;-78
2021/12/01 02:24:08;;;;;;;3.65;1.35;;;-0.70;99.90;;;-2.66;100.00;99943.84;4917243;28;20092;-78
2021/12/01 02:26:45;;;;;;;2.38;1.17;;;-0.60;99.90;;;-2.60;100.00;99931.78;4943785;28;20215;-78
2021/12/01 02:29:16;;;;;;;3.17;1.15;;;-0.60;99.90;;;-2.60;100.00;99931.78;4949928;28;20095;-79
2021/12/01 02:31:45;;;;;;;1.35;0.73;;;-0.60;99.90;;;-2.59;100.00;99941.25;4960276;28;20026;-78
2021/12/01 02:34:19;;;;;;;5.40;1.15;;;-0.60;99.90;;;-2.60;100.00;99931.78;4967229;28;20030;-79
2021/12/01 02:36:48;;;;;;;1.73;0.80;;;-0.60;99.90;;;-2.63;100.00;99929.25;4951472;28;20057;-79
2021/12/01 02:39:16;;;;;;;2.00;0.93;;;-0.60;99.90;;;-2.63;100.00;99920.66;4947189;28;20049;-78
2021/12/01 02:41:45;;;;;;;2.22;1.10;;;-0.70;99.90;;;-2.70;100.00;99912.97;4934074;28;20019;-78
2021/12/01 02:44:15;;;;;;;5.35;1.42;;;-0.70;99.90;;;-2.75;100.00;99899.22;4922060;28;20094;-78
2021/12/01 02:46:42;;;;;;;1.45;0.90;;;-0.80;99.90;;;-2.81;100.00;99891.53;4949307;28;21880;-78
2021/12/01 02:49:08;;;;;;;2.08;0.90;;;-0.90;99.90;;;-2.87;100.00;99886.44;4947726;28;20109;-78
2021/12/01 02:51:36;;;;;;;4.00;0.80;;;-0.90;99.90;;;-2.96;100.00;99876.16;4934500;28;20564;-78
2021/12/01 02:54:05;;;;;;;2.75;1.02;;;-0.90;99.90;;;-2.99;100.00;99871.88;4945914;28;20033;-78
2021/12/01 02:56:33;;;;;;;3.50;1.30;;;-1.00;99.90;;;-3.05;100.00;99876.22;4938205;28;20108;-77
2021/12/01 02:59:02;;;;;;;4.53;1.40;;;-1.10;99.90;;;-3.12;100.00;99871.06;4946098;28;20546;-78
2021/12/01 03:01:29;;;;;;;3.70;1.02;;;-1.10;99.90;;;-3.09;100.00;99875.34;4931764;28;20045;-78
2021/12/01 03:03:56;;;;;;;5.35;1.38;;;-1.00;99.90;;;-3.04;100.00;99870.22;4932797;28;20034;-77
2021/12/01 03:06:34;;;;;;;4.03;1.30;;;-1.00;99.90;;;-3.00;100.00;99869.31;4947366;28;20061;-77
2021/12/01 03:09:02;;;;;;;1.73;1.05;;;-1.00;99.90;;;-2.99;100.00;99871.03;4931326;28;20018;-77
2021/12/01 03:11:28;;;;;;;2.40;1.17;;;-1.00;99.90;;;-3.01;100.00;99859.88;4948152;28;20035;-78
2021/12/01 03:13:55;;;;;;;2.85;1.17;;;-1.00;99.90;;;-3.04;100.00;99849.59;4950863;28;20030;-77
2021/12/01 03:16:23;;;;;;;5.07;1.20;;;-1.00;99.90;;;-3.04;100.00;99847.88;4941311;28;20034;-77
2021/12/01 03:18:49;;;;;;;3.88;1.52;;;-1.00;99.90;;;-3.02;100.00;99842.69;4952890;28;20055;-77
2021/12/01 03:21:16;;;;;;;1.98;1.25;;;-1.00;99.90;;;-3.02;100.00;99833.28;4948493;28;20030;-77
2021/12/01 03:23:43;;;;;;;2.30;1.08;;;-1.00;99.90;;;-3.04;100.00;99821.28;4923948;28;20030;-77
2021/12/01 03:26:11;;;;;;;5.28;1.05;;;-1.00;99.90;;;-3.07;100.00;99822.13;4939844;28;20042;-78
2021/12/01 03:28:39;;;;;;;2.95;1.40;;;-1.00;99.90;;;-3.07;100.00;99819.53;4940619;28;20096;-77
2021/12/01 03:31:05;;;;;;;1.85;0.77;;;-1.00;99.90;;;-2.98;100.00;99818.63;4930677;28;20089;-79
2021/12/01 03:33:31;;;;;;;2.83;1.30;;;-1.00;99.90;;;-2.98;100.00;99809.22;4932055;28;20053;-77
2021/12/01 03:35:57;;;;;;;3.67;1.35;;;-0.90;99.90;;;-2.93;100.00;99816.91;4912251;28;20521;-77
2021/12/01 03:38:29;;;;;;;5.63;1.50;;;-0.80;99.90;;;-2.87;100.00;99793.69;4960127;28;20149;-78
2021/12/01 03:40:57;;;;;;;1.30;1.00;;;-0.80;99.90;;;-2.83;100.00;99797.94;4944514;28;20234;-78
2021/12/01 03:43:24;;;;;;;2.90;1.15;;;-0.80;99.90;;;-2.73;100.00;99799.56;4949348;28;20364;-77
2021/12/01 03:45:52;;;;;;;5.97;1.30;;;-0.70;99.90;;;-2.74;100.00;99777.25;4935984;28;20043;-77
2021/12/01 03:48:20;;;;;;;3.08;1.38;;;-0.70;99.90;;;-2.70;100.00;99768.66;4918063;28;20034;-78
2021/12/01 03:50:51;;;;;;;12.45;1.25;;;;;;;-2.74;100.00;99750.66;4912440;28;20424;-77
2021/12/01 03:53:22;;;;;;;2.95;1.23;;;-0.80;99.90;;;-2.75;100.00;99746.34;4962061;28;20034;-77
2021/12/01 03:55:49;;;;;;;9.35;1.63;;;-0.80;99.90;;;-2.81;100.00;99739.50;4936519;28;21661;-77
2021/12/01 03:58:15;;;;;;;2.35;1.27;;;-0.70;99.90;;;-2.79;100.00;99730.03;4925786;28;20038;-78
2021/12/01 04:00:42;;;;;;;2.05;1.30;;;1.10;99.90;;;-2.79;100.00;99727.47;4931634;28;20031;-78
2021/12/01 04:03:08;;;;;;;4.05;1.40;;;-0.70;99.90;;;-2.70;100.00;99729.13;4955997;28;20026;-77
2021/12/01 04:05:35;;;;;;;3.90;1.50;;;-0.60;99.90;;;-2.65;100.00;99721.38;4929051;28;20026;-78
2021/12/01 04:08:03;;;;;;;3.25;1.73;;;-0.60;99.90;;;-2.61;100.00;99726.47;4932982;28;20050;-78
2021/12/01 04:10:30;;;;;;;8.55;1.58;;;-0.50;99.90;;;-2.45;100.00;99732.34;4947689;28;20054;-78
2021/12/01 04:12:56;;;;;;;4.70;1.88;;;-0.40;99.90;;;-2.34;100.00;99730.50;4915387;28;20032;-77
2021/12/01 04:15:23;;;;;;;4.15;1.75;;;-0.40;99.90;;;-2.31;100.00;99730.50;4944259;28;20122;-77
2021/12/01 04:17:50;;;;;;;10.20;1.45;;;-0.30;99.90;;;-2.20;100.00;99727.81;4927204;28;20392;-77
2021/12/01 04:20:18;;;;;;;4.95;1.70;;;-0.20;99.90;;;-2.13;100.00;99732.00;4960970;28;20034;-78
2021/12/01 04:22:46;;;;;;;4.43;1.48;;;-0.20;99.90;;;-2.05;100.00;99729.34;4947126;28;20061;-78
2021/12/01 04:25:14;;;;;;;2.58;1.30;;;-0.10;99.90;;;-1.90;100.00;99741.22;4947638;28;20048;-77
2021/12/01 04:27:40;;;;;;;2.67;1.10;;;0.00;99.90;;;-1.87;100.00;99742.03;4931114;28;20110;-77
2021/12/01 04:30:13;;;;;;;6.32;1.55;;;0.00;99.90;;;-1.86;100.00;99728.28;4913795;28;20026;-77
2021/12/01 04:32:40;;;;;;;6.03;1.30;;;0.10;99.90;;;-1.84;100.00;99725.66;4933680;28;20062;-78
2021/12/01 04:35:07;;;;;;;5.40;1.38;;;0.10;99.90;;;-1.79;100.00;99717.84;4949671;28;20073;-78
2021/12/01 04:37:35;;;;;;;8.52;1.42;;;0.10;99.90;;;-1.79;100.00;99717.84;4953929;28;20062;-78
2021/12/01 04:40:04;;;;;;;2.53;1.13;;;0.10;99.90;;;-1.75;100.00;99716.94;4909971;28;20061;-78
2021/12/01 04:42:30;;;;;;;13.00;4.22;;;0.10;99.90;;;-1.77;100.00;99703.19;4950966;28;20045;-78
2021/12/01 04:44:56;;;;;;;4.90;1.33;;;0.20;99.90;;;-1.76;100.00;99707.50;4929835;28;20038;-78
2021/12/01 04:47:28;;;;;;;9.63;1.48;;;0.20;99.90;;;-1.71;100.00;99688.50;4921253;28;20038;-78
2021/12/01 04:49:56;;;;;;;4.38;1.60;;;;;;;-1.69;100.00;99691.06;4929511;28;20365;-79
2021/12/01 04:52:23;;;;;;;3.50;1.60;;;0.20;99.90;;;-1.65;100.00;99675.50;4937770;28;20121;-78
2021/12/01 04:54:50;;;;;;;3.60;1.38;;;0.30;99.90;;;-1.61;100.00;99668.59;4917028;28;20077;-77
2021/12/01 04:57:16;;;;;;;6.07;1.58;;;0.30;99.90;;;-1.62;100.00;99648.81;4934219;28;20055;-78
2021/12/01 04:59:47;;;;;;;5.30;1.40;;;0.30;99.90;;;-1.55;100.00;99647.00;4940542;28;20029;-78
2021/12/01 05:02:13;;;;;;;5.28;1.20;;;0.30;99.90;;;-1.54;100.00;99634.06;4937228;28;20035;-78
2021/12/01 05:04:41;;;;;;;10.05;1.40;;;0.30;99.90;;;-1.46;100.00;99631.38;4939309;28;20500;-78
2021/12/01 05:07:09;;;;;;;6.10;1.42;;;0.40;99.90;;;-1.53;100.00;99620.28;4920537;28;20072;-78
2021/12/01 05:09:42;;;;;;;4.22;1.42;;;0.30;99.90;;;-1.49;100.00;99603.88;4911900;28;20052;-78
2021/12/01 05:12:10;;;;;;;5.40;1.10;;;0.40;99.90;;;-1.47;100.00;99602.13;4909222;28;20058;-78
2021/12/01 05:14:41;;;;;;;5.80;1.60;;;0.40;99.90;;;-1.52;100.00;99598.75;4940132;28;20080;-78
2021/12/01 05:17:08;;;;;;;3.85;1.20;;;0.40;99.90;;;-1.49;100.00;99598.72;4941364;28;20105;-78
2021/12/01 05:19:35;;;;;;;5.38;1.33;;;0.40;99.90;;;-1.45;100.00;99584.88;4917612;28;20067;-78
2021/12/01 05:22:03;;;;;;;10.23;1.48;;;0.40;99.90;;;-1.45;100.00;99571.97;4904591;28;20076;-78
2021/12/01 05:24:29;;;;;;;3.67;1.60;;;0.40;99.90;;;-1.43;100.00;99561.59;4930829;28;20023;-78
2021/12/01 05:27:00;;;;;;;5.18;1.63;;;0.40;99.90;;;-1.35;100.00;99549.41;4931023;28;20102;-78
2021/12/01 05:29:26;;;;;;;2.47;1.20;;;0.50;99.90;;;-1.39;100.00;99545.19;4937974;28;20030;-78
2021/12/01 05:31:54;;;;;;;11.48;1.73;;;0.50;99.90;;;-1.43;100.00;99535.78;4906015;28;22239;-78
2021/12/01 05:34:20;;;;;;;4.55;1.17;;;0.50;99.90;;;-1.38;100.00;99538.28;4915931;28;20117;-78
2021/12/01 05:36:52;;;;;;;5.28;1.10;;;0.50;99.90;;;-1.32;100.00;99533.88;4936132;28;20117;-78
2021/12/01 05:39:18;;;;;;;2.05;1.10;;;0.50;99.90;;;-1.33;100.00;99518.41;4965555;28;20845;-79
2021/12/01 05:41:45;;;;;;;3.70;1.33;;;0.50;99.90;;;-1.32;100.00;99509.78;4947960;28;20039;-79
2021/12/01 05:44:11;;;;;;;3.78;0.98;;;0.60;99.90;;;-1.29;100.00;99510.56;4926830;28;20034;-79
2021/12/01 05:46:37;;;;;;;2.55;1.02;;;0.60;99.90;;;-1.25;100.00;99509.66;4929251;28;20042;-79
2021/12/01 05:49:06;;;;;;;4.50;1.02;;;;;;;-1.22;100.00;99500.13;4883255;28;20028;-80
2021/12/01 05:51:32;;;;;;;4.25;1.38;;;0.60;99.90;;;-1.24;100.00;99489.81;4924895;28;20459;-78
2021/12/01 05:53:59;;;;;;;4.47;1.30;;;;;;;-1.21;100.00;99469.09;4897639;28;20036;-79
2021/12/01 05:56:25;;;;;;;2.50;1.10;;;0.60;99.90;;;-1.20;100.00;99467.38;4907787;28;20135;-79
2021/12/01 05:58:51;;;;;;;9.80;1.33;;;0.70;99.90;;;-1.22;100.00;99459.66;4899494;28;20054;-79
2021/12/01 06:01:23;;;;;;;4.03;1.20;;;0.70;99.90;;;-1.19;100.00;99459.59;4828953;28;20031;-79
2021/12/01 06:03:49;;;;;;;13.77;1.67;;;0.60;99.90;;;-1.25;100.00;99437.31;4877776;28;20427;-80
2021/12/01 06:06:16;;;;;;;5.97;1.40;;;0.70;99.90;;;-1.17;100.00;99423.41;4914089;28;20023;-79
2021/12/01 06:08:42;;;;;;;3.47;0.98;;;0.70;99.90;;;-1.19;100.00;99405.34;4928851;28;20038;-79
2021/12/01 06:11:09;;;;;;;5.63;1.30;;;0.70;99.90;;;-1.17;100.00;99398.41;4912792;28;20026;-79
2021/12/01 06:13:40;;;;;;;4.13;1.25;;;0.70;99.90;;;-1.10;100.00;99393.97;4911688;28;20061;-80
2021/12/01 06:16:07;;;;;;;3.35;1.05;;;0.70;99.90;;;-1.14;100.00;99376.88;4896085;28;20046;-79
2021/12/01 06:18:34;;;;;;;13.60;1.33;;;0.70;99.90;;;-1.10;100.00;99375.88;4871724;28;20042;-80
2021/12/01 06:21:01;;;;;;;6.38;0.98;;;0.70;99.90;;;-1.14;100.00;99377.72;4876456;28;20041;-80
2021/12/01 06:23:31;;;;;;;18.35;3.42;;;0.70;99.90;;;-1.07;100.00;99375.84;4866637;28;20039;-80
2021/12/01 06:25:57;;;;;;;10.20;1.38;;;0.80;99.90;;;-1.12;100.00;99372.53;4872749;28;20048;-80
2021/12/01 06:28:23;;;;;;;7.72;1.17;;;0.70;99.90;;;-1.14;100.00;99364.78;4872472;28;20046;-80
2021/12/01 06:30:50;;;;;;;4.53;1.13;;;0.70;99.90;;;-1.10;100.00;99360.38;4879261;28;20042;-81
2021/12/01 06:33:16;;;;;;;7.20;1.38;;;0.80;99.90;;;-1.07;100.00;99358.59;4865640;28;20049;-79
2021/12/01 06:35:52;;;;;;;13.30;1.27;;;0.80;99.90;;;-1.07;100.00;99350.84;4867466;28;20513;-80
2021/12/01 06:38:19;;;;;;;;;;;0.80;99.90;;;-1.06;100.00;99355.16;4918357;28;20114;-81
2021/12/01 06:40:55;;;;;;;11.65;2.25;;;;;;;-1.05;100.00;99348.25;4879064;28;19910;-81
2021/12/01 06:43:21;;;;;;;;;;;0.90;99.90;;;-1.00;100.00;99348.16;4900083;28;20031;-81
2021/12/01 06:45:47;;;;;;;7.82;1.33;;;0.80;99.90;;;-0.98;100.00;99346.38;4896429;28;20008;-81
2021/12/01 06:48:21;;;;;;;6.45;1.30;;;;;;;-0.96;100.00;99335.13;4896500;28;20040;-80
2021/12/01 06:50:47;;;;;;;7.97;2.25;;;0.90;99.90;;;-0.93;100.00;99321.28;4889948;28;20039;-81
2021/12/01 06:53:14;;;;;;;17.80;2.47;;;0.90;99.90;;;-0.99;100.00;99313.66;4890326;28;20030;-80
2021/12/01 06:55:40;;;;;;;11.63;4.50;;;0.90;99.90;;;-0.94;100.00;99306.66;4876623;28;20047;-81
2021/12/01 06:58:15;;;;;;;7.70;2.75;;;0.80;99.90;;;-1.00;100.00;99299.06;4902906;28;20032;-81
2021/12/01 07:00:42;;;;;;;14.93;2.37;;;;;;;-1.00;100.00;99288.72;4884154;28;20124;-81
2021/12/01 07:03:08;;;;;;;13.48;1.75;;;0.90;99.90;;;-0.99;100.00;99287.81;4872395;28;20319;-81
2021/12/01 07:05:43;;;;;;;7.35;1.67;;;;;;;-0.88;100.00;99288.44;4841060;28;20650;-80
2021/12/01 07:08:09;;;;;;;3.20;1.30;;;1.00;99.90;;;-0.90;100.00;99278.13;4895863;28;24352;-80
2021/12/01 07:10:36;;;;;;;6.82;1.42;;;0.90;99.90;;;-0.93;100.00;99277.34;4892680;28;20039;-80
2021/12/01 07:13:09;;;;;;;6.47;1.73;;;1.00;99.90;;;-0.93;100.00;99267.00;4896626;28;20059;-80
2021/12/01 07:15:35;;;;;;;6.95;1.70;;;0.90;99.90;;;-0.92;100.00;99259.22;4874776;28;20031;-80
2021/12/01 07:18:01;;;;;;;4.50;1.27;;;1.00;99.90;;;-0.87;100.00;99261.72;4863921;28;20258;-81
2021/12/01 07:20:27;;;;;;;8.35;1.83;;;1.00;99.90;;;-0.85;100.00;99247.00;4886760;28;20034;-80
2021/12/01 07:23:02;;;;;;;11.45;1.80;;;1.10;99.90;;;-0.78;100.00;99245.97;4941501;28;20616;-79
2021/12/01 07:25:30;;;;;;;12.80;1.93;;;1.00;99.90;;;-0.76;100.00;99244.22;4926408;28;20042;-80
2021/12/01 07:27:56;;;;;;;3.83;1.13;;;1.10;99.90;;;-0.74;100.00;99233.84;4875971;28;20285;-80
2021/12/01 07:30:27;;;;;;;7.85;1.63;;;1.10;99.90;;;-0.69;100.00;99239.72;4868559;28;20051;-80
2021/12/01 07:32:53;;;;;;;11.98;2.47;;;1.10;99.90;;;-0.74;100.00;99233.84;4865393;28;20087;-80
2021/12/01 07:35:19;;;;;;;6.25;1.98;;;1.20;99.90;;;-0.71;100.00;99237.22;4884749;28;20053;-80
2021/12/01 07:37:46;;;;;;;5.15;1.75;;;1.10;99.90;;;-0.72;100.00;99230.31;4909014;28;20518;-81
2021/12/01 07:40:12;;;;;;;7.75;1.20;;;1.10;99.90;;;-0.70;100.00;99220.78;4877804;28;20500;-80
2021/12/01 07:42:43;;;;;;;8.68;1.90;;;1.20;99.90;;;-0.67;100.00;99217.28;4857222;28;20399;-80
2021/12/01 07:45:11;;;;;;;16.27;2.05;;;;;;;-0.71;100.00;99195.84;4888613;28;20046;-81
2021/12/01 07:47:39;;;;;;;13.25;2.78;;;;;;;-0.71;100.00;99192.44;4917396;28;20426;-80
2021/12/01 07:50:15;;;;;;;15.68;2.92;;;1.10;99.90;;;-0.74;100.00;99177.81;4897687;28;20088;-79
2021/12/01 07:52:41;;;;;;;4.95;1.80;;;1.10;99.90;;;-0.74;100.00;99161.47;4880761;28;20037;-79
2021/12/01 07:55:08;;;;;;;14.48;2.40;;;1.10;99.90;;;-0.78;100.00;99150.34;4907211;28;20074;-80
2021/12/01 07:57:39;;;;;;;11.52;2.08;;;1.10;99.90;;;-0.74;100.00;99141.63;4877837;28;20038;-80
2021/12/01 08:00:07;;;;;;;6.82;1.80;;;1.10;99.90;;;-0.64;100.00;99137.94;4869145;28;20048;-80
2021/12/01 08:02:35;;;;;;;24.50;2.67;;;1.20;99.90;;;-0.68;100.00;99128.53;4875370;28;20043;-81
2021/12/01 08:05:06;;;;;;;5.50;1.75;;;1.20;99.90;;;-0.67;100.00;99119.94;4903671;28;20030;-81
2021/12/01 08:07:38;;;;;;;189.57;15.80;;;;;;;-0.58;100.00;99110.19;4874193;28;20459;-81
2021/12/01 08:10:07;;;;;;;3.17;0.82;;;1.30;99.90;;;-0.55;100.00;99103.22;4893569;28;20078;-81
2021/12/01 08:12:38;;;;;;;14.05;2.72;;;;;;;-0.55;100.00;99097.22;4843699;28;20039;-82
2021/12/01 08:15:07;;;;;;;76.22;47.70;;;1.30;99.90;;;-0.52;100.00;99086.78;4894089;28;20106;-83
2021/12/01 08:17:41;;;;;;;9.00;2.55;;;;;;;-0.49;100.00;99087.53;4876738;28;20023;-82
2021/12/01 08:20:08;;;;;;;11.18;2.40;;;;;;;-0.46;100.00;99073.69;4886813;28;20502;-82
2021/12/01 08:23:01;;;;;;;17.92;3.00;;;1.40;99.90;;;-0.45;100.00;99067.63;4853258;28;20034;-82
2021/12/01 08:25:28;;;;;;;4.32;2.08;;;;;;;-0.43;100.00;99060.69;4888830;28;20039;-82
2021/12/01 08:27:54;;;;;;;8.68;1.58;;;1.40;99.90;;;-0.34;100.00;99054.38;4917195;28;22085;-82
2021/12/01 08:30:20;;;;;;;12.75;1.85;;;1.50;99.90;;;-0.37;100.00;99047.53;4911646;28;20111;-83
2021/12/01 08:32:56;;;;;;;9.27;1.75;;;1.50;99.90;;;-0.27;100.00;99040.38;4872196;28;20034;-82
2021/12/01 08:35:33;;;;;;;13.75;1.60;;;;;;;-0.23;100.00;99036.81;4874761;28;20038;-83
2021/12/01 08:37:59;;;;;;;7.68;1.98;;;1.60;99.90;;;-0.19;100.00;99037.53;4892087;28;20039;-84
2021/12/01 08:40:26;;;;;;;11.20;3.30;;;;;;;-0.19;100.00;99020.31;4921993;28;20031;-84
2021/12/01 08:42:52;;;;;;;10.15;2.08;;;1.60;99.90;;;-0.15;100.00;99010.69;4934411;28;20106;-81
2021/12/01 08:45:27;;;;;;;14.13;1.80;;;;;;;-0.14;100.00;99004.66;4939972;28;23265;-83
2021/12/01 08:48:06;;;;;;;6.00;1.80;;;;;;;-0.13;100.00;98996.84;4920928;28;20066;-81
2021/12/01 08:50:34;;;;;;;5.13;1.50;;;;;;;-0.16;100.00;98984.00;4902086;28;20026;-81
2021/12/01 08:53:10;;;;;;;10.77;1.83;;;1.70;99.90;;;-0.09;100.00;98982.91;4895149;28;20062;-85
2021/12/01 08:55:40;;;;;;;178.15;25.85;;;;;;;-0.03;100.00;98981.88;4885984;28;20182;-84
2021/12/01 08:58:30;;;;;;;7.15;1.98;;;1.80;99.90;;;-0.04;100.00;98972.44;4896091;28;20045;-82
2021/12/01 09:01:42;;;;;;;5.25;1.63;;;1.80;99.90;;;0.06;100.00;98986.75;4878105;28;20260;-83
2021/12/01 09:04:09;;;;;;;11.15;1.90;;;;;;;0.10;100.00;98967.66;4922578;28;20059;-84
2021/12/01 09:06:35;;;;;;;5.47;1.55;;;2.00;99.90;;;0.27;100.00;98979.22;4897959;28;20046;-84
2021/12/01 09:11:55;;;;;;;4.13;1.08;;;;;;;0.38;100.00;98982.28;4895307;28;20026;-84
2021/12/01 09:14:31;;;;;;;5.88;2.08;;;;;;;0.45;100.00;98976.00;4900145;28;20069;-82
2021/12/01 09:17:43;;;;;;;5.47;1.95;;;;;;;0.48;100.00;98952.59;4927106;28;20065;-84
2021/12/01 09:19:50;;;;;;;8.82;1.40;;;;;;;0.54;100.00;98947.22;4918770;28;20042;-83
2021/12/01 09:22:20;;;;;;;7.25;1.67;;;;;;;0.52;100.00;98938.66;4895784;28;20455;-84
2021/12/01 09:25:00;;;;;;;5.05;1.40;;;2.40;99.90;;;0.64;100.00;98936.53;4905223;28;20505;-84
2021/12/01 09:27:50;;;;;;;3.47;1.88;;;;;;;0.70;100.00;98941.50;4929343;28;20030;-84
2021/12/01 09:30:48;;;;;;;3.92;1.38;;;;;;;0.79;100.00;98928.22;4905632;28;20105;-84
2021/12/01 09:33:29;;;;;;;5.95;1.63;;;2.60;99.90;;;0.84;100.00;98947.03;4912656;28;20109;-84
2021/12/01 09:36:11;;;;;;;9.75;2.10;;;;;;;0.81;100.00;98939.38;4905034;28;20550;-84
2021/12/01 09:38:50;;;;;;;6.75;2.10;;;;;;;0.92;100.00;98923.44;4904650;28;20135;-83
2021/12/01 09:41:29;;;;;;;8.93;1.65;;;2.70;99.90;;;0.95;100.00;98926.78;4889278;28;20038;-84
2021/12/01 09:43:56;;;;;;;4.22;1.65;;;;;;;0.94;100.00;98909.53;4894314;28;20042;-83
2021/12/01 09:46:35;;;;;;;6.55;1.85;;;;;;;1.00;100.00;98904.13;4913106;28;21115;-84
2021/12/01 09:49:10;;;;;;;4.07;2.08;;;;;;;1.06;100.00;98878.88;4923989;28;20088;-85
2021/12/01 09:51:40;;;;;;;4.53;1.83;;;2.80;99.90;;;1.13;100.00;98882.94;4914514;28;20230;-86
2021/12/01 09:54:17;;;;;;;4.22;1.88;;;2.90;99.90;;;1.14;100.00;98884.63;4918801;28;20317;-84
2021/12/01 09:57:26;;;;;;;4.88;2.08;;;;;;;1.23;100.00;98876.50;4913116;28;20506;-84
2021/12/01 10:00:06;;;;;;;3.25;1.52;;;;;;;1.23;100.00;98864.41;4917413;28;20034;-84
2021/12/01 10:02:35;;;;;;;3.70;1.80;;;3.10;99.90;;;1.31;100.00;98860.66;4899087;28;20035;-84
2021/12/01 10:13:13;;;;;;;3.88;2.47;;;3.30;99.90;;;1.58;100.00;98840.59;4953375;28;20049;-84
2021/12/01 10:18:48;;;;;;;5.35;2.33;;;;;;;1.65;100.00;98823.84;4890310;28;20456;-85
2021/12/01 10:21:44;;;;;;;3.28;2.15;;;3.40;99.90;;;1.70;100.00;98814.13;4867835;28;20040;-84
2021/12/01 10:24:24;;;;;;;4.95;2.72;;;3.50;99.90;;;1.75;100.00;98816.53;4874929;28;20032;-84
2021/12/01 10:27:22;;;;;;;6.07;3.20;;;3.50;99.90;;;1.79;100.00;98794.72;4892291;28;20479;-84
2021/12/01 10:30:00;;;;;;;4.40;2.72;;;;;;;1.79;100.00;98795.59;4934599;28;20062;-84
2021/12/01 10:32:40;;;;;;;3.08;1.48;;;;;;;1.91;100.00;98788.22;4888705;28;20055;-84
2021/12/01 10:35:56;;;;;;;35.22;10.77;;;3.70;99.90;;;1.94;100.00;98762.09;4921309;28;20042;-84
2021/12/01 10:38:35;;;;;;;6.75;3.92;;;;;;;2.05;100.00;98754.69;4871025;28;20066;-84
2021/12/01 10:41:43;;;;;;;28.90;4.88;;;;;;;2.12;100.00;98748.34;4908990;28;20035;-84
2021/12/01 10:44:13;;;;;;;5.22;2.72;;;;;;;2.14;100.00;98733.53;4881819;28;20043;-84
2021/12/01 10:47:16;;;;;;;7.50;3.58;;;3.90;99.90;;;2.20;100.00;98709.91;4926709;28;20034;-83
2021/12/01 10:49:48;;;;;;;7.18;3.63;;;;;;;2.26;100.00;98700.97;4863640;28;20034;-84
2021/12/01 10:55:36;;;;;;;1515.15;754.10;;;4.10;99.90;;;2.39;100.00;98685.69;4931586;28;20557;-84
2021/12/01 11:01:27;;;;;;;8.90;5.07;;;4.20;99.90;;;2.54;100.00;98661.59;4915266;28;20027;-84
2021/12/01 11:03:53;;;;;;;7.70;4.20;;;;;;;2.60;100.00;98663.06;4896111;28;20038;-85
2021/12/01 11:06:37;;;;;;;7.22;4.47;;;4.40;99.90;;;2.71;100.00;98660.81;4893408;28;20055;-84
2021/12/01 11:09:15;;;;;;;10.20;4.60;;;4.50;99.90;;;2.77;100.00;98654.50;4901631;28;20031;-86
2021/12/01 11:12:11;;;;;;;7.93;4.85;;;;;;;2.87;100.00;98648.78;4870727;28;20110;-85
2021/12/01 11:15:02;;;;;;;7.97;3.95;;;4.70;99.90;;;3.02;100.00;98665.41;4908512;28;20488;-85
2021/12/01 11:18:05;;;;;;;7.47;3.90;;;;;;;3.04;100.00;98653.13;4891154;28;20507;-86